sensor_id;sensor_type;location;lat;lon;timestamp;pressure;altitude;pressure_sealevel;temperature;humidity
21742;BME280;11033;47.490;11.116;2023-04-08T00:02:15;93199.19;;;5.07;89.03
21742;BME280;11033;47.490;11.116;2023-04-08T00:04:41;93193.81;;;5.08;87.39
21742;BME280;11033;47.490;11.116;2023-04-08T00:07:06;93192.34;;;5.06;89.39
21742;BME280;11033;47.490;11.116;2023-04-08T00:09:32;93198.72;;;5.12;90.39
21742;BME280;11033;47.490;11.116;2023-04-08T00:11:57;93192.81;;;5.01;91.79
21742;BME280;11033;47.490;11.116;2023-04-08T00:14:22;93192.69;;;5.11;90.81
21742;BME280;11033;47.490;11.116;2023-04-08T00:16:48;93201.59;;;5.26;88.42
21742;BME280;11033;47.490;11.116;2023-04-08T00:19:13;93187.38;;;5.21;88.87
21742;BME280;11033;47.490;11.116;2023-04-08T00:21:38;93194.31;;;5.12;90.34
21742;BME280;11033;47.490;11.116;2023-04-08T00:24:04;93193.66;;;5.10;90.36
21742;BME280;11033;47.490;11.116;2023-04-08T00:26:29;93195.78;;;5.06;89.32
21742;BME280;11033;47.490;11.116;2023-04-08T00:28:55;93181.75;;;5.07;90.15
21742;BME280;11033;47.490;11.116;2023-04-08T00:31:20;93187.28;;;5.04;91.05
21742;BME280;11033;47.490;11.116;2023-04-08T00:33:46;93184.38;;;5.16;89.66
21742;BME280;11033;47.490;11.116;2023-04-08T00:36:11;93187.16;;;5.14;89.36
21742;BME280;11033;47.490;11.116;2023-04-08T00:38:36;93182.41;;;5.09;90.26
21742;BME280;11033;47.490;11.116;2023-04-08T00:41:01;93184.69;;;5.13;90.63
21742;BME280;11033;47.490;11.116;2023-04-08T00:43:27;93185.31;;;5.06;91.68
21742;BME280;11033;47.490;11.116;2023-04-08T00:45:52;93190.53;;;5.06;91.90
21742;BME280;11033;47.490;11.116;2023-04-08T00:48:17;93193.47;;;5.03;92.05
21742;BME280;11033;47.490;11.116;2023-04-08T00:50:43;93195.09;;;5.04;91.71
21742;BME280;11033;47.490;11.116;2023-04-08T00:53:08;93198.84;;;5.02;92.42
21742;BME280;11033;47.490;11.116;2023-04-08T00:55:34;93190.34;;;5.00;92.95
21742;BME280;11033;47.490;11.116;2023-04-08T00:58:00;93201.63;;;5.00;93.05
21742;BME280;11033;47.490;11.116;2023-04-08T01:00:28;93199.03;;;5.08;91.07
21742;BME280;11033;47.490;11.116;2023-04-08T01:03:13;93200.16;;;5.06;91.60
21742;BME280;11033;47.490;11.116;2023-04-08T01:08:09;93201.97;;;5.05;89.74
21742;BME280;11033;47.490;11.116;2023-04-08T01:10:38;93207.88;;;5.16;88.61
21742;BME280;11033;47.490;11.116;2023-04-08T01:13:11;93199.00;;;5.85;93.22
21742;BME280;11033;47.490;11.116;2023-04-08T01:15:38;93205.88;;;5.35;90.16
21742;BME280;11033;47.490;11.116;2023-04-08T01:18:10;93207.84;;;5.07;91.02
21742;BME280;11033;47.490;11.116;2023-04-08T01:20:37;93205.91;;;5.09;90.74
21742;BME280;11033;47.490;11.116;2023-04-08T01:23:14;93207.50;;;5.02;90.69
21742;BME280;11033;47.490;11.116;2023-04-08T01:25:55;93215.41;;;5.19;89.20
21742;BME280;11033;47.490;11.116;2023-04-08T01:28:23;93212.59;;;5.12;89.97
21742;BME280;11033;47.490;11.116;2023-04-08T01:30:49;93208.94;;;5.23;89.22
21742;BME280;11033;47.490;11.116;2023-04-08T01:33:17;93211.81;;;4.86;91.37
21742;BME280;11033;47.490;11.116;2023-04-08T01:35:44;93214.53;;;4.76;92.60
21742;BME280;11033;47.490;11.116;2023-04-08T01:38:13;93210.94;;;4.77;91.23
21742;BME280;11033;47.490;11.116;2023-04-08T01:40:40;93208.28;;;4.69;92.46
21742;BME280;11033;47.490;11.116;2023-04-08T01:43:07;93216.81;;;4.79;91.50
21742;BME280;11033;47.490;11.116;2023-04-08T01:45:33;93212.31;;;4.89;91.44
21742;BME280;11033;47.490;11.116;2023-04-08T01:48:00;93213.03;;;4.99;90.51
21742;BME280;11033;47.490;11.116;2023-04-08T01:50:26;93208.72;;;4.90;90.96
21742;BME280;11033;47.490;11.116;2023-04-08T01:52:51;93212.88;;;4.75;92.47
21742;BME280;11033;47.490;11.116;2023-04-08T01:55:19;93214.31;;;4.69;92.53
21742;BME280;11033;47.490;11.116;2023-04-08T01:57:48;93216.16;;;4.77;92.79
21742;BME280;11033;47.490;11.116;2023-04-08T02:00:17;93212.06;;;4.74;92.96
21742;BME280;11033;47.490;11.116;2023-04-08T02:02:44;93206.94;;;4.65;93.60
21742;BME280;11033;47.490;11.116;2023-04-08T02:05:11;93212.69;;;4.68;93.28
21742;BME280;11033;47.490;11.116;2023-04-08T02:07:36;93209.50;;;4.57;93.88
21742;BME280;11033;47.490;11.116;2023-04-08T02:10:02;93210.03;;;4.60;94.02
21742;BME280;11033;47.490;11.116;2023-04-08T02:12:28;93211.28;;;4.56;94.56
21742;BME280;11033;47.490;11.116;2023-04-08T02:14:53;93212.16;;;4.65;92.69
21742;BME280;11033;47.490;11.116;2023-04-08T02:17:31;93218.88;;;4.50;93.70
21742;BME280;11033;47.490;11.116;2023-04-08T02:20:08;93214.88;;;4.37;94.93
21742;BME280;11033;47.490;11.116;2023-04-08T02:22:49;93206.00;;;4.48;94.56
21742;BME280;11033;47.490;11.116;2023-04-08T02:25:21;93209.78;;;4.54;94.31
21742;BME280;11033;47.490;11.116;2023-04-08T02:27:51;93211.28;;;4.38;95.28
21742;BME280;11033;47.490;11.116;2023-04-08T02:30:17;93213.25;;;4.36;96.21
21742;BME280;11033;47.490;11.116;2023-04-08T02:32:43;93207.16;;;4.54;94.73
21742;BME280;11033;47.490;11.116;2023-04-08T02:35:10;93214.56;;;4.40;95.39
21742;BME280;11033;47.490;11.116;2023-04-08T02:37:36;93218.09;;;4.31;96.28
21742;BME280;11033;47.490;11.116;2023-04-08T02:40:02;93219.06;;;4.30;96.80
21742;BME280;11033;47.490;11.116;2023-04-08T02:42:27;93218.75;;;4.33;96.95
21742;BME280;11033;47.490;11.116;2023-04-08T02:44:52;93218.09;;;4.31;96.26
21742;BME280;11033;47.490;11.116;2023-04-08T02:47:18;93222.63;;;4.29;96.77
21742;BME280;11033;47.490;11.116;2023-04-08T02:49:43;93218.63;;;4.17;97.14
21742;BME280;11033;47.490;11.116;2023-04-08T02:52:08;93223.44;;;4.30;96.61
21742;BME280;11033;47.490;11.116;2023-04-08T02:54:34;93222.75;;;4.45;94.95
21742;BME280;11033;47.490;11.116;2023-04-08T02:57:00;93214.75;;;4.21;95.48
21742;BME280;11033;47.490;11.116;2023-04-08T02:59:25;93219.66;;;4.24;96.08
21742;BME280;11033;47.490;11.116;2023-04-08T03:01:50;93216.38;;;4.22;96.27
21742;BME280;11033;47.490;11.116;2023-04-08T03:04:15;93217.50;;;4.20;96.02
21742;BME280;11033;47.490;11.116;2023-04-08T03:06:41;93217.94;;;4.15;96.94
21742;BME280;11033;47.490;11.116;2023-04-08T03:09:06;93219.06;;;4.12;97.71
21742;BME280;11033;47.490;11.116;2023-04-08T03:11:31;93215.78;;;4.10;98.05
21742;BME280;11033;47.490;11.116;2023-04-08T03:13:57;93221.06;;;4.19;97.61
21742;BME280;11033;47.490;11.116;2023-04-08T03:16:22;93220.56;;;4.15;98.39
21742;BME280;11033;47.490;11.116;2023-04-08T03:18:50;93225.47;;;4.18;98.11
21742;BME280;11033;47.490;11.116;2023-04-08T03:21:16;93219.22;;;4.11;97.97
21742;BME280;11033;47.490;11.116;2023-04-08T03:23:41;93221.59;;;4.22;96.87
21742;BME280;11033;47.490;11.116;2023-04-08T03:26:06;93216.91;;;4.26;96.72
21742;BME280;11033;47.490;11.116;2023-04-08T03:28:32;93224.59;;;4.09;98.09
21742;BME280;11033;47.490;11.116;2023-04-08T03:30:57;93225.63;;;3.99;98.01
21742;BME280;11033;47.490;11.116;2023-04-08T03:33:22;93215.03;;;4.18;96.73
21742;BME280;11033;47.490;11.116;2023-04-08T03:35:48;93222.28;;;4.24;96.50
21742;BME280;11033;47.490;11.116;2023-04-08T03:38:13;93226.16;;;4.20;96.21
21742;BME280;11033;47.490;11.116;2023-04-08T03:40:38;93222.09;;;4.43;93.41
21742;BME280;11033;47.490;11.116;2023-04-08T03:43:03;93224.28;;;4.30;94.35
21742;BME280;11033;47.490;11.116;2023-04-08T03:45:30;93229.72;;;4.19;95.22
21742;BME280;11033;47.490;11.116;2023-04-08T03:47:56;93223.63;;;4.10;94.79
21742;BME280;11033;47.490;11.116;2023-04-08T03:50:21;93224.81;;;4.16;94.99
21742;BME280;11033;47.490;11.116;2023-04-08T03:52:46;93231.88;;;4.06;95.50
21742;BME280;11033;47.490;11.116;2023-04-08T03:55:11;93234.41;;;3.98;96.11
21742;BME280;11033;47.490;11.116;2023-04-08T03:57:37;93221.16;;;4.09;95.67
21742;BME280;11033;47.490;11.116;2023-04-08T04:00:02;93239.56;;;4.07;96.05
21742;BME280;11033;47.490;11.116;2023-04-08T04:02:28;93237.69;;;4.00;97.02
21742;BME280;11033;47.490;11.116;2023-04-08T04:04:53;93233.38;;;4.08;95.88
21742;BME280;11033;47.490;11.116;2023-04-08T04:07:18;93231.97;;;4.14;94.64
21742;BME280;11033;47.490;11.116;2023-04-08T04:09:44;93241.63;;;4.22;94.22
21742;BME280;11033;47.490;11.116;2023-04-08T04:12:09;93238.13;;;4.13;94.93
21742;BME280;11033;47.490;11.116;2023-04-08T04:14:34;93240.88;;;4.11;95.58
21742;BME280;11033;47.490;11.116;2023-04-08T04:17:00;93243.13;;;4.24;95.29
21742;BME280;11033;47.490;11.116;2023-04-08T04:19:29;93248.72;;;4.29;94.81
21742;BME280;11033;47.490;11.116;2023-04-08T04:21:54;93249.69;;;4.10;95.79
21742;BME280;11033;47.490;11.116;2023-04-08T04:24:19;93255.78;;;4.01;97.13
21742;BME280;11033;47.490;11.116;2023-04-08T04:26:45;93253.78;;;4.13;97.30
21742;BME280;11033;47.490;11.116;2023-04-08T04:29:10;93257.78;;;4.25;96.74
21742;BME280;11033;47.490;11.116;2023-04-08T04:31:35;93257.78;;;4.25;96.17
21742;BME280;11033;47.490;11.116;2023-04-08T04:34:00;93252.34;;;4.36;94.37
21742;BME280;11033;47.490;11.116;2023-04-08T04:36:26;93258.69;;;4.16;96.45
21742;BME280;11033;47.490;11.116;2023-04-08T04:38:51;93263.69;;;4.09;96.57
21742;BME280;11033;47.490;11.116;2023-04-08T04:41:16;93262.47;;;4.22;95.83
21742;BME280;11033;47.490;11.116;2023-04-08T04:43:42;93262.47;;;4.22;95.39
21742;BME280;11033;47.490;11.116;2023-04-08T04:46:07;93269.72;;;4.10;97.33
21742;BME280;11033;47.490;11.116;2023-04-08T04:48:33;93269.19;;;4.06;97.91
21742;BME280;11033;47.490;11.116;2023-04-08T04:50:59;93268.00;;;4.19;96.99
21742;BME280;11033;47.490;11.116;2023-04-08T04:53:29;93277.00;;;4.24;96.17
21742;BME280;11033;47.490;11.116;2023-04-08T04:55:54;93265.84;;;4.32;95.59
21742;BME280;11033;47.490;11.116;2023-04-08T04:58:20;93263.31;;;4.22;97.04
21742;BME280;11033;47.490;11.116;2023-04-08T05:00:45;93268.81;;;4.19;98.55
21742;BME280;11033;47.490;11.116;2023-04-08T05:03:11;93275.44;;;4.31;97.32
21742;BME280;11033;47.490;11.116;2023-04-08T05:05:36;93275.97;;;4.35;96.51
21742;BME280;11033;47.490;11.116;2023-04-08T05:08:01;93268.97;;;4.35;95.45
21742;BME280;11033;47.490;11.116;2023-04-08T05:10:27;93270.91;;;4.33;96.25
21742;BME280;11033;47.490;11.116;2023-04-08T05:12:52;93276.63;;;4.37;97.23
21742;BME280;11033;47.490;11.116;2023-04-08T05:15:17;93273.88;;;4.38;96.68
21742;BME280;11033;47.490;11.116;2023-04-08T05:17:43;93283.25;;;4.31;96.93
21742;BME280;11033;47.490;11.116;2023-04-08T05:20:08;93275.44;;;4.31;97.91
21742;BME280;11033;47.490;11.116;2023-04-08T05:22:33;93281.03;;;4.36;96.95
21742;BME280;11033;47.490;11.116;2023-04-08T05:24:59;93281.16;;;4.53;96.13
21742;BME280;11033;47.490;11.116;2023-04-08T05:27:24;93278.94;;;4.40;96.54
21742;BME280;11033;47.490;11.116;2023-04-08T05:29:50;93276.13;;;4.33;97.19
21742;BME280;11033;47.490;11.116;2023-04-08T05:32:15;93276.78;;;4.35;98.34
21742;BME280;11033;47.490;11.116;2023-04-08T05:34:41;93281.94;;;4.63;95.56
21742;BME280;11033;47.490;11.116;2023-04-08T05:37:07;93287.56;;;4.76;94.25
21742;BME280;11033;47.490;11.116;2023-04-08T05:39:32;93281.56;;;4.58;97.03
21742;BME280;11033;47.490;11.116;2023-04-08T05:41:57;93291.91;;;4.50;97.54
21742;BME280;11033;47.490;11.116;2023-04-08T05:44:22;93285.88;;;4.67;97.53
21742;BME280;11033;47.490;11.116;2023-04-08T05:46:48;93293.66;;;4.85;95.33
21742;BME280;11033;47.490;11.116;2023-04-08T05:49:13;93293.53;;;4.86;94.59
21742;BME280;11033;47.490;11.116;2023-04-08T05:51:39;93288.31;;;4.86;94.71
21742;BME280;11033;47.490;11.116;2023-04-08T05:54:05;93276.94;;;4.95;95.39
21742;BME280;11033;47.490;11.116;2023-04-08T05:56:30;93285.44;;;4.97;95.43
21742;BME280;11033;47.490;11.116;2023-04-08T05:58:56;93283.19;;;5.02;95.45
21742;BME280;11033;47.490;11.116;2023-04-08T06:01:22;93275.72;;;5.07;95.80
21742;BME280;11033;47.490;11.116;2023-04-08T06:03:47;93287.00;;;5.34;94.28
21742;BME280;11033;47.490;11.116;2023-04-08T06:06:12;93280.13;;;5.33;93.19
21742;BME280;11033;47.490;11.116;2023-04-08T06:08:38;93286.63;;;5.29;92.70
21742;BME280;11033;47.490;11.116;2023-04-08T06:11:03;93294.78;;;5.26;92.61
21742;BME280;11033;47.490;11.116;2023-04-08T06:13:29;93291.25;;;5.35;92.67
21742;BME280;11033;47.490;11.116;2023-04-08T06:15:55;93291.63;;;5.48;91.89
21742;BME280;11033;47.490;11.116;2023-04-08T06:18:20;93295.22;;;5.47;91.51
21742;BME280;11033;47.490;11.116;2023-04-08T06:20:45;93293.31;;;5.57;90.34
21742;BME280;11033;47.490;11.116;2023-04-08T06:23:10;93298.66;;;5.48;90.76
21742;BME280;11033;47.490;11.116;2023-04-08T06:25:36;93287.38;;;5.47;90.62
21742;BME280;11033;47.490;11.116;2023-04-08T06:28:02;93291.66;;;5.56;91.38
21742;BME280;11033;47.490;11.116;2023-04-08T06:30:27;93290.78;;;5.82;90.41
21742;BME280;11033;47.490;11.116;2023-04-08T06:32:52;93280.81;;;5.77;90.16
21742;BME280;11033;47.490;11.116;2023-04-08T06:35:17;93281.78;;;6.02;88.91
21742;BME280;11033;47.490;11.116;2023-04-08T06:37:43;93286.31;;;5.92;88.90
21742;BME280;11033;47.490;11.116;2023-04-08T06:40:08;93289.97;;;6.15;88.26
21742;BME280;11033;47.490;11.116;2023-04-08T06:42:34;93286.06;;;6.27;87.12
21742;BME280;11033;47.490;11.116;2023-04-08T06:44:59;93289.03;;;6.32;86.47
21742;BME280;11033;47.490;11.116;2023-04-08T06:47:25;93286.44;;;6.49;85.19
21742;BME280;11033;47.490;11.116;2023-04-08T06:49:50;93290.06;;;6.56;84.39
21742;BME280;11033;47.490;11.116;2023-04-08T06:52:15;93290.31;;;6.28;84.49
21742;BME280;11033;47.490;11.116;2023-04-08T06:54:41;93291.97;;;6.46;84.89
21742;BME280;11033;47.490;11.116;2023-04-08T06:57:06;93296.25;;;6.47;84.50
21742;BME280;11033;47.490;11.116;2023-04-08T06:59:31;93283.69;;;6.50;85.90
21742;BME280;11033;47.490;11.116;2023-04-08T07:01:57;93293.47;;;6.48;85.03
21742;BME280;11033;47.490;11.116;2023-04-08T07:04:22;93291.97;;;6.38;85.85
21742;BME280;11033;47.490;11.116;2023-04-08T07:06:47;93292.66;;;6.48;83.94
21742;BME280;11033;47.490;11.116;2023-04-08T07:09:13;93292.19;;;6.77;84.23
21742;BME280;11033;47.490;11.116;2023-04-08T07:11:38;93296.94;;;7.06;83.33
21742;BME280;11033;47.490;11.116;2023-04-08T07:14:03;93292.00;;;7.11;82.43
21742;BME280;11033;47.490;11.116;2023-04-08T07:16:28;93295.78;;;7.32;82.20
21742;BME280;11033;47.490;11.116;2023-04-08T07:18:54;93300.88;;;7.18;82.87
21742;BME280;11033;47.490;11.116;2023-04-08T07:21:19;93298.34;;;7.49;81.15
21742;BME280;11033;47.490;11.116;2023-04-08T07:23:44;93288.66;;;7.66;80.68
21742;BME280;11033;47.490;11.116;2023-04-08T07:26:10;93299.78;;;7.68;81.11
21742;BME280;11033;47.490;11.116;2023-04-08T07:28:35;93300.09;;;7.73;79.74
21742;BME280;11033;47.490;11.116;2023-04-08T07:31:08;93300.97;;;8.04;78.08
21742;BME280;11033;47.490;11.116;2023-04-08T07:33:34;93300.47;;;8.09;76.74
21742;BME280;11033;47.490;11.116;2023-04-08T07:35:59;93295.94;;;8.25;76.87
21742;BME280;11033;47.490;11.116;2023-04-08T07:38:24;93303.25;;;8.07;76.08
21742;BME280;11033;47.490;11.116;2023-04-08T07:40:50;93296.09;;;7.93;74.57
21742;BME280;11033;47.490;11.116;2023-04-08T07:43:15;93287.47;;;8.15;74.13
21742;BME280;11033;47.490;11.116;2023-04-08T07:45:40;93291.03;;;8.22;74.64
21742;BME280;11033;47.490;11.116;2023-04-08T07:48:06;93289.06;;;8.24;73.73
21742;BME280;11033;47.490;11.116;2023-04-08T07:50:31;93287.78;;;8.20;74.16
21742;BME280;11033;47.490;11.116;2023-04-08T07:52:56;93290.09;;;8.54;75.62
21742;BME280;11033;47.490;11.116;2023-04-08T07:55:21;93282.91;;;8.71;75.32
21742;BME280;11033;47.490;11.116;2023-04-08T07:57:47;93285.19;;;8.74;74.81
21742;BME280;11033;47.490;11.116;2023-04-08T08:00:12;93284.94;;;9.07;74.79
21742;BME280;11033;47.490;11.116;2023-04-08T08:02:44;93277.22;;;9.43;74.99
21742;BME280;11033;47.490;11.116;2023-04-08T08:05:10;93279.13;;;9.34;73.45
21742;BME280;11033;47.490;11.116;2023-04-08T08:07:35;93279.88;;;9.72;70.20
21742;BME280;11033;47.490;11.116;2023-04-08T08:10:00;93281.31;;;9.75;70.61
21742;BME280;11033;47.490;11.116;2023-04-08T08:12:25;93273.81;;;10.01;69.62
21742;BME280;11033;47.490;11.116;2023-04-08T08:14:51;93272.72;;;9.81;69.41
21742;BME280;11033;47.490;11.116;2023-04-08T08:17:19;93280.16;;;9.92;68.74
21742;BME280;11033;47.490;11.116;2023-04-08T08:19:45;93272.00;;;9.87;69.27
21742;BME280;11033;47.490;11.116;2023-04-08T08:22:10;93266.72;;;9.58;68.58
21742;BME280;11033;47.490;11.116;2023-04-08T08:24:36;93261.28;;;10.03;68.98
21742;BME280;11033;47.490;11.116;2023-04-08T08:27:02;93262.75;;;9.91;67.09
21742;BME280;11033;47.490;11.116;2023-04-08T08:29:29;93267.00;;;10.22;66.68
21742;BME280;11033;47.490;11.116;2023-04-08T08:31:54;93270.88;;;9.67;65.86
21742;BME280;11033;47.490;11.116;2023-04-08T08:34:19;93269.06;;;10.41;65.41
21742;BME280;11033;47.490;11.116;2023-04-08T08:36:45;93269.28;;;10.61;64.28
21742;BME280;11033;47.490;11.116;2023-04-08T08:39:10;93272.28;;;11.00;65.26
21742;BME280;11033;47.490;11.116;2023-04-08T08:41:35;93264.25;;;11.30;64.43
21742;BME280;11033;47.490;11.116;2023-04-08T08:44:04;93262.56;;;10.79;63.35
21742;BME280;11033;47.490;11.116;2023-04-08T08:46:29;93263.94;;;10.97;63.71
21742;BME280;11033;47.490;11.116;2023-04-08T08:48:55;93258.28;;;11.00;63.40
21742;BME280;11033;47.490;11.116;2023-04-08T08:51:21;93260.72;;;11.23;62.22
21742;BME280;11033;47.490;11.116;2023-04-08T08:53:46;93259.28;;;11.20;62.05
21742;BME280;11033;47.490;11.116;2023-04-08T08:56:12;93260.06;;;11.42;62.43
21742;BME280;11033;47.490;11.116;2023-04-08T08:58:37;93256.84;;;11.19;63.09
21742;BME280;11033;47.490;11.116;2023-04-08T09:01:28;93262.41;;;11.30;62.77
21742;BME280;11033;47.490;11.116;2023-04-08T09:04:13;93252.53;;;11.39;63.07
21742;BME280;11033;47.490;11.116;2023-04-08T09:06:41;93265.44;;;10.42;63.46
21742;BME280;11033;47.490;11.116;2023-04-08T09:09:07;93271.16;;;10.31;63.96
21742;BME280;11033;47.490;11.116;2023-04-08T09:11:40;93265.78;;;10.39;64.80
21742;BME280;11033;47.490;11.116;2023-04-08T09:14:19;93272.06;;;10.08;66.33
21742;BME280;11033;47.490;11.116;2023-04-08T09:16:45;93278.53;;;9.91;68.39
21742;BME280;11033;47.490;11.116;2023-04-08T09:19:10;93271.91;;;9.80;69.81
21742;BME280;11033;47.490;11.116;2023-04-08T09:21:37;93273.38;;;9.83;70.66
21742;BME280;11033;47.490;11.116;2023-04-08T09:24:02;93269.47;;;9.79;72.08
21742;BME280;11033;47.490;11.116;2023-04-08T09:26:28;93269.06;;;9.67;71.78
21742;BME280;11033;47.490;11.116;2023-04-08T09:29:01;93268.66;;;9.78;71.25
21742;BME280;11033;47.490;11.116;2023-04-08T09:31:29;93270.53;;;9.70;71.97
21742;BME280;11033;47.490;11.116;2023-04-08T09:33:56;93271.28;;;9.93;71.51
21742;BME280;11033;47.490;11.116;2023-04-08T09:36:22;93275.28;;;9.89;70.91
21742;BME280;11033;47.490;11.116;2023-04-08T09:38:48;93274.69;;;9.64;71.08
21742;BME280;11033;47.490;11.116;2023-04-08T09:41:15;93275.06;;;10.05;70.45
21742;BME280;11033;47.490;11.116;2023-04-08T09:43:46;93285.44;;;9.92;71.82
21742;BME280;11033;47.490;11.116;2023-04-08T09:46:17;93284.94;;;9.59;72.89
21742;BME280;11033;47.490;11.116;2023-04-08T09:48:54;93292.13;;;9.65;73.22
21742;BME280;11033;47.490;11.116;2023-04-08T09:51:22;93286.88;;;9.80;71.94
21742;BME280;11033;47.490;11.116;2023-04-08T09:53:55;93289.94;;;9.69;71.49
21742;BME280;11033;47.490;11.116;2023-04-08T09:56:26;93290.88;;;9.24;72.23
21742;BME280;11033;47.490;11.116;2023-04-08T09:58:58;93301.47;;;8.93;72.04
21742;BME280;11033;47.490;11.116;2023-04-08T10:01:45;93295.78;;;9.27;72.91
21742;BME280;11033;47.490;11.116;2023-04-08T10:04:14;93307.94;;;9.28;74.16
21742;BME280;11033;47.490;11.116;2023-04-08T10:06:46;93302.38;;;9.75;73.21
21742;BME280;11033;47.490;11.116;2023-04-08T10:09:18;93298.72;;;9.61;72.39
21742;BME280;11033;47.490;11.116;2023-04-08T10:11:43;93307.88;;;9.50;72.56
21742;BME280;11033;47.490;11.116;2023-04-08T10:14:09;93307.13;;;9.79;72.73
21742;BME280;11033;47.490;11.116;2023-04-08T10:16:35;93307.97;;;9.57;71.09
21742;BME280;11033;47.490;11.116;2023-04-08T10:19:00;93305.31;;;9.28;73.05
21742;BME280;11033;47.490;11.116;2023-04-08T10:21:39;93308.13;;;9.26;74.69
21742;BME280;11033;47.490;11.116;2023-04-08T10:24:11;93310.03;;;9.32;74.36
21742;BME280;11033;47.490;11.116;2023-04-08T10:26:41;93306.25;;;9.49;72.75
21742;BME280;11033;47.490;11.116;2023-04-08T10:31:41;93306.44;;;9.10;74.80
21742;BME280;11033;47.490;11.116;2023-04-08T10:34:17;93303.81;;;8.34;75.11
21742;BME280;11033;47.490;11.116;2023-04-08T10:36:43;93311.81;;;8.71;74.19
21742;BME280;11033;47.490;11.116;2023-04-08T10:39:08;93312.06;;;8.14;74.43
21742;BME280;11033;47.490;11.116;2023-04-08T10:41:34;93308.84;;;8.04;73.15
21742;BME280;11033;47.490;11.116;2023-04-08T10:44:02;93310.06;;;7.85;73.89
21742;BME280;11033;47.490;11.116;2023-04-08T10:46:28;93313.72;;;8.15;73.56
21742;BME280;11033;47.490;11.116;2023-04-08T10:48:59;93313.75;;;8.07;72.41
21742;BME280;11033;47.490;11.116;2023-04-08T10:51:31;93314.19;;;7.72;73.47
21742;BME280;11033;47.490;11.116;2023-04-08T10:54:17;93321.97;;;7.41;73.98
21742;BME280;11033;47.490;11.116;2023-04-08T10:56:47;93340.13;;;7.42;74.54
21742;BME280;11033;47.490;11.116;2023-04-08T10:59:14;93333.28;;;7.33;76.12
21742;BME280;11033;47.490;11.116;2023-04-08T11:01:41;93339.78;;;7.61;74.60
21742;BME280;11033;47.490;11.116;2023-04-08T11:04:15;93342.41;;;7.53;74.48
21742;BME280;11033;47.490;11.116;2023-04-08T11:06:43;93345.25;;;7.19;75.84
21742;BME280;11033;47.490;11.116;2023-04-08T11:09:10;93350.94;;;6.90;75.71
21742;BME280;11033;47.490;11.116;2023-04-08T11:11:36;93360.53;;;5.99;78.44
21742;BME280;11033;47.490;11.116;2023-04-08T11:14:02;93362.75;;;6.36;78.51
21742;BME280;11033;47.490;11.116;2023-04-08T11:16:27;93370.78;;;6.34;78.45
21742;BME280;11033;47.490;11.116;2023-04-08T11:18:53;93372.56;;;5.92;78.75
21742;BME280;11033;47.490;11.116;2023-04-08T11:21:19;93372.47;;;5.84;79.86
21742;BME280;11033;47.490;11.116;2023-04-08T11:23:48;93373.50;;;6.17;79.17
21742;BME280;11033;47.490;11.116;2023-04-08T11:26:14;93370.16;;;5.98;78.64
21742;BME280;11033;47.490;11.116;2023-04-08T11:28:40;93375.88;;;6.02;80.14
21742;BME280;11033;47.490;11.116;2023-04-08T11:31:08;93371.66;;;6.09;80.43
21742;BME280;11033;47.490;11.116;2023-04-08T11:33:34;93377.28;;;6.30;80.91
21742;BME280;11033;47.490;11.116;2023-04-08T11:36:01;93387.59;;;5.90;78.88
21742;BME280;11033;47.490;11.116;2023-04-08T11:38:30;93391.00;;;6.24;80.00
21742;BME280;11033;47.490;11.116;2023-04-08T11:40:57;93388.09;;;6.35;81.12
21742;BME280;11033;47.490;11.116;2023-04-08T11:43:23;93394.03;;;6.46;81.03
21742;BME280;11033;47.490;11.116;2023-04-08T11:45:49;93397.28;;;5.80;81.82
21742;BME280;11033;47.490;11.116;2023-04-08T11:48:15;93399.44;;;5.58;82.08
21742;BME280;11033;47.490;11.116;2023-04-08T11:50:43;93393.56;;;5.13;82.86
21742;BME280;11033;47.490;11.116;2023-04-08T11:53:23;93397.84;;;5.65;83.49
21742;BME280;11033;47.490;11.116;2023-04-08T11:55:49;93409.09;;;5.58;82.29
21742;BME280;11033;47.490;11.116;2023-04-08T11:58:14;93403.28;;;5.46;82.97
21742;BME280;11033;47.490;11.116;2023-04-08T12:00:40;93407.72;;;5.28;83.75
21742;BME280;11033;47.490;11.116;2023-04-08T12:03:06;93411.94;;;5.47;83.41
21742;BME280;11033;47.490;11.116;2023-04-08T12:05:32;93410.41;;;5.36;84.08
21742;BME280;11033;47.490;11.116;2023-04-08T12:07:57;93408.25;;;5.57;83.80
21742;BME280;11033;47.490;11.116;2023-04-08T12:10:23;93408.91;;;5.16;85.39
21742;BME280;11033;47.490;11.116;2023-04-08T12:12:49;93419.97;;;4.74;85.23
21742;BME280;11033;47.490;11.116;2023-04-08T12:15:15;93419.09;;;4.10;89.21
21742;BME280;11033;47.490;11.116;2023-04-08T12:17:40;93420.06;;;4.55;88.16
21742;BME280;11033;47.490;11.116;2023-04-08T12:20:06;93416.16;;;4.86;87.07
21742;BME280;11033;47.490;11.116;2023-04-08T12:22:32;93414.66;;;4.84;86.61
21742;BME280;11033;47.490;11.116;2023-04-08T12:24:57;93426.16;;;4.91;85.06
21742;BME280;11033;47.490;11.116;2023-04-08T12:27:22;93425.25;;;5.00;83.89
21742;BME280;11033;47.490;11.116;2023-04-08T12:29:47;93423.13;;;4.50;85.75
21742;BME280;11033;47.490;11.116;2023-04-08T12:32:14;93423.13;;;4.50;86.35
21742;BME280;11033;47.490;11.116;2023-04-08T12:34:39;93430.72;;;4.43;87.82
21742;BME280;11033;47.490;11.116;2023-04-08T12:37:05;93421.81;;;4.36;87.45
21742;BME280;11033;47.490;11.116;2023-04-08T12:39:30;93427.97;;;4.18;87.62
21742;BME280;11033;47.490;11.116;2023-04-08T12:41:56;93417.72;;;4.34;87.27
21742;BME280;11033;47.490;11.116;2023-04-08T12:44:21;93426.91;;;4.38;87.79
21742;BME280;11033;47.490;11.116;2023-04-08T12:46:46;93431.69;;;3.68;89.63
21742;BME280;11033;47.490;11.116;2023-04-08T12:49:12;93433.72;;;4.21;88.07
21742;BME280;11033;47.490;11.116;2023-04-08T12:51:37;93440.97;;;3.80;88.55
21742;BME280;11033;47.490;11.116;2023-04-08T12:54:02;93433.28;;;3.89;88.39
21742;BME280;11033;47.490;11.116;2023-04-08T12:56:28;93441.34;;;4.05;88.82
21742;BME280;11033;47.490;11.116;2023-04-08T12:58:54;93439.50;;;4.15;87.37
21742;BME280;11033;47.490;11.116;2023-04-08T13:01:22;93430.91;;;4.32;87.71
21742;BME280;11033;47.490;11.116;2023-04-08T13:03:47;93427.91;;;4.27;87.58